createdAt,value
2024-04-24T00:04:46.915Z,12.74
2024-04-24T00:10:05.925Z,12.74
2024-04-24T00:15:25.433Z,12.73
2024-04-24T00:20:44.737Z,12.73
2024-04-24T00:26:04.343Z,12.73
2024-04-24T00:31:23.299Z,12.73
2024-04-24T00:36:42.356Z,12.73
2024-04-24T00:42:02.880Z,12.72
2024-04-24T00:47:21.805Z,12.72
2024-04-24T00:52:40.824Z,12.72
2024-04-24T00:58:00.492Z,12.72
2024-04-24T01:03:20.497Z,12.72
2024-04-24T01:09:54.628Z,12.71
2024-04-24T01:13:59.364Z,12.71
2024-04-24T01:19:18.780Z,12.71
2024-04-24T01:24:37.755Z,12.71
2024-04-24T01:29:56.603Z,12.7
2024-04-24T01:35:15.715Z,12.7
2024-04-24T01:40:34.675Z,12.7
2024-04-24T01:45:53.502Z,12.69
2024-04-24T01:51:12.966Z,12.69
2024-04-24T01:56:32.040Z,12.69
2024-04-24T02:01:51.725Z,12.68
2024-04-24T02:07:10.583Z,12.68
2024-04-24T02:12:29.966Z,12.68
2024-04-24T02:17:50.246Z,12.68
2024-04-24T02:23:08.860Z,12.66
2024-04-24T02:28:27.628Z,12.67
2024-04-24T02:33:46.515Z,12.67
2024-04-24T02:39:06.027Z,12.65
2024-04-24T02:44:26.030Z,12.65
2024-04-24T02:49:44.342Z,12.66
2024-04-24T02:55:03.817Z,12.65
2024-04-24T03:00:22.782Z,12.65
2024-04-24T03:05:43.067Z,12.64
2024-04-24T03:11:01.985Z,12.64
2024-04-24T03:16:21.141Z,12.63
2024-04-24T03:21:40.782Z,12.63
2024-04-24T03:27:00.495Z,12.63
2024-04-24T03:32:20.036Z,12.62
2024-04-24T03:37:39.380Z,12.61
2024-04-24T03:44:13.564Z,12.61
2024-04-24T03:48:19.304Z,12.61
2024-04-24T03:53:36.527Z,12.61
2024-04-24T03:58:55.443Z,12.6
2024-04-24T04:04:15.110Z,12.6
2024-04-24T04:09:34.658Z,12.6
2024-04-24T04:14:54.488Z,12.6
2024-04-24T04:20:14.785Z,12.59
2024-04-24T04:25:33.357Z,12.6
2024-04-24T04:30:52.302Z,12.6
2024-04-24T04:36:11.865Z,12.6
2024-04-24T04:41:31.242Z,12.61
2024-04-24T04:46:50.349Z,12.62
2024-04-24T04:52:09.689Z,12.65
2024-04-24T04:57:29.674Z,12.68
2024-04-24T05:04:03.842Z,12.67
2024-04-24T05:08:07.623Z,12.66
2024-04-24T05:13:26.382Z,12.64
2024-04-24T05:18:45.759Z,12.66
2024-04-24T05:24:05.364Z,12.68
2024-04-24T05:29:24.892Z,12.71
2024-04-24T05:34:44.239Z,12.71
2024-04-24T05:40:03.348Z,12.72
2024-04-24T05:45:23.134Z,12.74
2024-04-24T05:56:00.458Z,12.8
2024-04-24T06:01:20.594Z,12.82
2024-04-24T06:06:38.743Z,12.85
2024-04-24T06:11:58.293Z,12.84
2024-04-24T06:17:17.899Z,12.82
2024-04-24T06:22:36.873Z,12.82
2024-04-24T06:27:56.851Z,12.81
2024-04-24T06:34:31.059Z,12.84
2024-04-24T06:38:35.111Z,12.98
2024-04-24T06:43:53.730Z,13.06
2024-04-24T06:49:13.412Z,13.04
2024-04-24T06:54:32.785Z,12.96
2024-04-24T06:59:51.959Z,12.96
2024-04-24T07:05:11.218Z,12.99
2024-04-24T07:10:30.802Z,12.99
2024-04-24T07:15:51.234Z,12.98
2024-04-24T07:21:09.730Z,12.99
2024-04-24T07:26:29.477Z,12.94
2024-04-24T07:31:49.845Z,12.9
2024-04-24T07:37:08.860Z,12.94
2024-04-24T07:42:28.233Z,12.97
2024-04-24T07:47:47.882Z,13
2024-04-24T07:53:07.719Z,13.06
2024-04-24T07:58:26.502Z,13.17
2024-04-24T08:03:45.389Z,13.29
2024-04-24T08:09:05.698Z,13.32
2024-04-24T08:14:25.264Z,13.35
2024-04-24T08:19:44.134Z,13.44
2024-04-24T08:25:03.609Z,13.49
2024-04-24T08:27:20.047Z,13.46
2024-04-24T08:34:18.621Z,13.55
2024-04-24T08:36:18.039Z,13.56
2024-04-24T08:41:36.072Z,13.64
2024-04-24T08:46:55.610Z,13.89
2024-04-24T08:52:15.276Z,14.02
2024-04-24T08:57:34.790Z,14.07
2024-04-24T09:02:53.536Z,13.87
2024-04-24T09:08:12.314Z,13.79
2024-04-24T09:13:31.406Z,13.69
2024-04-24T09:18:51.167Z,13.56
2024-04-24T09:24:10.328Z,13.55
2024-04-24T09:29:30.066Z,13.64
2024-04-24T09:34:48.909Z,13.7
2024-04-24T09:40:08.967Z,13.73
2024-04-24T09:46:43.167Z,13.88
2024-04-24T09:50:48.706Z,14.08
2024-04-24T09:56:06.166Z,14.35
2024-04-24T10:01:25.059Z,14.36
2024-04-24T10:06:45.024Z,14.33
2024-04-24T10:12:03.856Z,14.34
2024-04-24T10:17:23.960Z,14.35
2024-04-24T10:22:43.160Z,14.38
2024-04-24T10:28:01.233Z,14.38
2024-04-24T10:33:20.580Z,14.42
2024-04-24T10:38:39.674Z,14.38
2024-04-24T10:43:58.679Z,14.43
2024-04-24T10:49:17.950Z,14.39
2024-04-24T10:54:37.493Z,14.39
2024-04-24T10:59:56.827Z,14.38
2024-04-24T11:05:16.239Z,14.42
2024-04-24T11:10:36.644Z,14.39
2024-04-24T11:17:10.811Z,14.39
2024-04-24T11:21:15.923Z,14.39
2024-04-24T11:30:21.420Z,14.38
2024-04-24T11:31:53.561Z,14.41
2024-04-24T11:39:10.772Z,14.34
2024-04-24T11:47:52.476Z,14.35
2024-04-24T11:53:09.863Z,14.4
2024-04-24T11:58:30.067Z,14.4
2024-04-24T12:03:49.102Z,14.42
2024-04-24T12:09:08.629Z,14.38
2024-04-24T12:14:27.975Z,14.36
2024-04-24T12:19:45.904Z,13.73
2024-04-24T12:25:04.494Z,13.62
2024-04-24T12:30:24.000Z,13.83
2024-04-24T12:35:42.893Z,13.6
2024-04-24T12:41:01.880Z,13.49
2024-04-24T12:46:21.588Z,13.45
2024-04-24T12:51:42.026Z,13.41
2024-04-24T12:57:00.680Z,14.37
2024-04-24T13:07:40.510Z,14.37
2024-04-24T13:14:14.722Z,14.36
2024-04-24T13:18:20.539Z,14.37
2024-04-24T13:25:17.230Z,14.4
2024-04-24T13:28:58.041Z,14.39
2024-04-24T13:35:56.523Z,14.4
2024-04-24T13:44:56.899Z,14.39
2024-04-24T13:50:14.428Z,14.42
2024-04-24T13:55:33.931Z,14.41
2024-04-24T14:00:52.092Z,14.4
2024-04-24T14:06:11.866Z,14.4
2024-04-24T14:11:30.312Z,14.39
2024-04-24T14:16:49.304Z,14.4
2024-04-24T14:22:08.038Z,14.4
2024-04-24T14:27:27.498Z,14.4
2024-04-24T14:32:46.742Z,14.4
2024-04-24T14:38:05.969Z,14.39
2024-04-24T14:43:25.239Z,14.39
2024-04-24T14:48:44.196Z,14.39
2024-04-24T14:54:03.481Z,14.38
2024-04-24T14:59:22.738Z,13.35
2024-04-24T15:04:42.500Z,13.46
2024-04-24T15:10:03.054Z,13.3
2024-04-24T15:16:37.196Z,13.18
2024-04-24T15:26:01.104Z,13.1
2024-04-24T15:31:19.270Z,13.04
2024-04-24T15:36:38.974Z,13.03
2024-04-24T15:41:59.199Z,13.02
2024-04-24T15:48:33.380Z,13
2024-04-24T15:52:36.928Z,13.1
2024-04-24T15:57:56.308Z,14.4
2024-04-24T16:03:16.493Z,14.4
2024-04-24T16:08:35.478Z,14.41
2024-04-24T16:13:54.939Z,14.39
2024-04-24T16:19:13.795Z,14.4
2024-04-24T16:24:32.815Z,14.38
2024-04-24T16:30:01.436Z,14.39
2024-04-24T16:35:10.291Z,14.39
2024-04-24T16:40:30.217Z,14.38
2024-04-24T16:45:49.548Z,14.39
2024-04-24T16:51:08.643Z,14.4
2024-04-24T16:56:27.928Z,14.39
2024-04-24T17:01:46.445Z,14.39
2024-04-24T17:07:05.512Z,14.39
2024-04-24T17:12:24.840Z,14.4
2024-04-24T17:17:44.476Z,14.39
2024-04-24T17:23:03.356Z,14.38
2024-04-24T17:28:22.507Z,13.98
2024-04-24T17:33:42.379Z,14.38
2024-04-24T17:39:01.710Z,14.38
2024-04-24T17:49:40.406Z,13.17
2024-04-24T17:54:59.911Z,13.11
2024-04-24T18:00:19.517Z,13.06
2024-04-24T18:05:39.277Z,13
2024-04-24T18:10:58.087Z,12.99
2024-04-24T18:16:17.620Z,12.96
2024-04-24T18:21:39.137Z,12.95
2024-04-24T18:26:56.168Z,12.93
2024-04-24T18:32:15.909Z,12.92
2024-04-24T18:37:35.660Z,12.93
2024-04-24T18:42:54.623Z,12.92
2024-04-24T18:48:13.603Z,12.92
2024-04-24T18:53:33.200Z,12.91
2024-04-24T18:58:52.950Z,12.9
2024-04-24T19:04:11.768Z,12.9
2024-04-24T19:09:30.496Z,12.9
2024-04-24T19:14:49.642Z,12.89
2024-04-24T19:20:08.897Z,12.89
2024-04-24T19:25:28.650Z,12.89
2024-04-24T19:30:48.088Z,12.88
2024-04-24T19:36:07.232Z,12.88
2024-04-24T19:41:26.989Z,12.88
2024-04-24T19:46:46.370Z,12.87
2024-04-24T19:52:05.534Z,12.87
2024-04-24T19:57:24.895Z,12.87
2024-04-24T20:02:43.952Z,12.86
2024-04-24T20:08:03.087Z,12.86
2024-04-24T20:13:21.953Z,12.87
2024-04-24T20:18:40.915Z,12.86
2024-04-24T20:24:00.308Z,12.86
2024-04-24T20:29:19.833Z,12.86
2024-04-24T20:34:39.353Z,12.86
2024-04-24T20:39:58.792Z,12.85
2024-04-24T20:45:18.258Z,12.85
2024-04-24T20:50:37.685Z,12.86
2024-04-24T20:55:57.426Z,12.85
2024-04-24T21:01:16.726Z,12.85
2024-04-24T21:06:36.027Z,12.84
2024-04-24T21:11:55.347Z,12.84
2024-04-24T21:17:15.277Z,12.84
2024-04-24T21:22:35.403Z,12.84
2024-04-24T21:27:52.958Z,12.84
2024-04-24T21:33:12.561Z,12.84
2024-04-24T21:38:32.379Z,12.84
2024-04-24T21:43:50.685Z,12.84
2024-04-24T21:49:09.652Z,12.83
2024-04-24T21:54:28.449Z,12.83
2024-04-24T21:59:47.582Z,12.83
2024-04-24T22:05:07.196Z,12.82
2024-04-24T22:10:26.918Z,12.83
2024-04-24T22:15:46.260Z,12.82
2024-04-24T22:21:05.134Z,12.82
2024-04-24T22:26:24.284Z,12.82
2024-04-24T22:31:43.651Z,12.82
2024-04-24T22:37:03.149Z,12.82
2024-04-24T22:42:22.220Z,12.82
2024-04-24T22:47:41.371Z,12.82
2024-04-24T22:53:00.913Z,12.82
2024-04-24T22:58:19.762Z,12.81
2024-04-24T23:03:39.101Z,12.82
2024-04-24T23:08:58.090Z,12.81
2024-04-24T23:14:18.054Z,12.82
2024-04-24T23:19:37.460Z,12.8
2024-04-24T23:24:56.511Z,12.81
2024-04-24T23:30:16.102Z,12.81
2024-04-24T23:35:35.349Z,12.81
2024-04-24T23:40:54.916Z,12.8
2024-04-24T23:46:14.104Z,12.8
2024-04-24T23:51:32.892Z,12.8
2024-04-24T23:56:51.799Z,12.79
